Monday, October 15, 2018, 5:09 AM EDT
Back to Local

KASH, Nashua, Boire Field Airport

Location: Nashua, NH, United States Lat: 42.782
Local Time: 5:09 AM EDT ( 9:09 GMT) Lon: -71.515
Time Zone: US/Eastern Elev: 200 ft

Show me the last for .
Show Decoded

2018-10-15 04:56 METAR KASH 150856Z AUTO 00000KT 10SM CLR 02/02 A3020 RMK AO2 SLP237 T00170017
                 55007 =
2018-10-15 03:56 METAR KASH 150756Z AUTO 00000KT 10SM CLR 02/02 A3019 RMK AO2 SLP236 T00220022 =
2018-10-15 02:56 METAR KASH 150656Z AUTO 00000KT 10SM CLR 03/03 A3020 RMK AO2 SLP240 T00280028 =
2018-10-15 01:56 METAR KASH 150556Z AUTO 31003KT 10SM CLR 03/03 A3022 RMK AO2 SLP244 T00280028
                 10072 20028 51000 =
2018-10-15 00:56 METAR KASH 150456Z AUTO 00000KT 10SM CLR 03/03 A3021 RMK AO2 SLP243 T00330033
                 401440011 =
2018-10-14 23:56 METAR KASH 150356Z AUTO 00000KT 10SM CLR 04/04 A3022 RMK AO2 SLP246 T00440044 =
2018-10-14 22:56 METAR KASH 150256Z AUTO 00000KT 10SM CLR 05/05 A3022 RMK AO2 SLP244 T00500050
                 53006 =
2018-10-14 21:56 METAR KASH 150156Z AUTO 00000KT 10SM CLR 06/06 A3021 RMK AO2 SLP241 T00560056 =
2018-10-14 20:56 METAR KASH 150056Z 00000KT 10SM CLR 06/06 A3019 RMK AO2 SLP236 T00610061 =
2018-10-14 19:56 METAR KASH 142356Z 00000KT 10SM CLR 07/07 A3020 RMK AO2 SLP237 T00720067 10144
                 20067 51011 =
2018-10-14 18:56 METAR KASH 142256Z 00000KT 10SM CLR 08/08 A3019 RMK AO2 SLP234 T00830078 =
2018-10-14 17:56 METAR KASH 142156Z VRB03KT 10SM CLR 12/07 A3017 RMK AO2 SLP230 T01170067 =
2018-10-14 16:56 METAR KASH 142056Z 26004KT 10SM CLR 14/05 A3017 RMK AO2 SLP227 T01390050 58001 =
2018-10-14 15:56 METAR KASH 141956Z VRB03KT 10SM FEW040 14/04 A3017 RMK AO2 SLP228 T01390044 =
2018-10-14 14:56 METAR KASH 141856Z 25003KT 10SM FEW050 13/04 A3017 RMK AO2 SLP227 T01280044 =
2018-10-14 13:56 METAR KASH 141756Z COR 25005G12KT 10SM FEW050 13/02 A3017 RMK AO2 SLP227
                 T01330022 10139 20028 58006 =
2018-10-14 12:56 METAR KASH 141656Z VRB05KT 10SM CLR 13/02 A3017 RMK AO2 SLP227 T01280017 =
2018-10-14 11:56 METAR KASH 141556Z 28009KT 10SM CLR 12/02 A3019 RMK AO2 SLP235 T01220022 =
2018-10-14 10:56 METAR KASH 141456Z VRB04KT 10SM FEW030 11/04 A3019 RMK AO2 SLP234 T01060044
                 50004 =
2018-10-14 09:56 METAR KASH 141356Z 25005KT 10SM CLR 09/05 A3020 RMK AO2 SLP237 T00890050 =
2018-10-14 08:56 METAR KASH 141256Z 00000KT 10SM CLR 06/05 A3019 RMK AO2 SLP234 T00610050 =
2018-10-14 07:56 METAR KASH 141156Z 31003KT 10SM CLR 03/03 A3018 RMK AO2 SLP230 70012 T00280028
                 10039 20011 51017 =
2018-10-14 06:56 METAR KASH 141056Z 00000KT 10SM CLR 02/02 A3016 RMK AO2 SLP225 T00170017 =
2018-10-14 05:56 METAR KASH 140956Z AUTO 00000KT 10SM CLR 02/02 A3014 RMK AO2 SLP218 T00170017 =

Support USWX by starting your Amazon purchase here.